createdAt,value
2016-07-23T00:00:27.617Z,955.39
2016-07-23T00:01:24.345Z,955.39
2016-07-23T00:02:25.070Z,955.36
2016-07-23T00:03:28.703Z,955.36
2016-07-23T00:04:16.381Z,955.35
2016-07-23T00:05:26.498Z,955.38
2016-07-23T00:06:15.185Z,955.37
2016-07-23T00:07:15.277Z,955.35
2016-07-23T00:08:12.535Z,955.34
2016-07-23T00:09:30.447Z,955.35
2016-07-23T00:10:15.016Z,955.34
2016-07-23T00:11:14.309Z,955.32
2016-07-23T00:12:27.294Z,955.35
2016-07-23T00:13:37.491Z,955.32
2016-07-23T00:14:21.409Z,955.33
2016-07-23T00:15:12.664Z,955.35
2016-07-23T00:16:25.967Z,955.36
2016-07-23T00:17:27.479Z,955.34
2016-07-23T00:18:21.600Z,955.37
2016-07-23T00:19:24.925Z,955.37
2016-07-23T00:20:19.369Z,955.41
2016-07-23T00:21:13.674Z,955.39
2016-07-23T00:22:25.220Z,955.40
2016-07-23T00:23:20.475Z,955.41
2016-07-23T00:24:28.987Z,955.43
2016-07-23T00:25:21.480Z,955.48
2016-07-23T00:26:27.217Z,955.44
2016-07-23T00:27:24.963Z,955.45
2016-07-23T00:28:16.705Z,955.40
2016-07-23T00:29:24.216Z,955.40
2016-07-23T00:30:12.639Z,955.37
2016-07-23T00:31:24.308Z,955.40
2016-07-23T00:32:29.100Z,955.38
2016-07-23T00:33:26.937Z,955.44
2016-07-23T00:34:12.884Z,955.43
2016-07-23T00:35:12.530Z,955.38
2016-07-23T00:36:21.272Z,955.37
2016-07-23T00:37:26.589Z,955.40
2016-07-23T00:38:15.675Z,955.44
2016-07-23T00:39:14.116Z,955.47
2016-07-23T00:40:22.289Z,955.47
2016-07-23T00:41:13.474Z,955.46
2016-07-23T00:42:22.394Z,955.44
2016-07-23T00:43:26.500Z,955.45
2016-07-23T00:44:22.062Z,955.44
2016-07-23T00:45:25.154Z,955.41
2016-07-23T00:46:25.896Z,955.42
2016-07-23T00:47:21.417Z,955.44
2016-07-23T00:48:21.217Z,955.43
2016-07-23T00:49:19.989Z,955.42
2016-07-23T00:50:25.751Z,955.41
2016-07-23T00:51:35.467Z,955.40
2016-07-23T00:52:18.271Z,955.43
2016-07-23T00:53:16.129Z,955.42
2016-07-23T00:54:14.337Z,955.45
2016-07-23T00:55:33.045Z,955.44
2016-07-23T00:56:23.727Z,955.41
2016-07-23T00:57:21.278Z,955.43
2016-07-23T00:58:18.726Z,955.47
2016-07-23T00:59:26.411Z,955.45
2016-07-23T01:00:22.176Z,955.48
2016-07-23T01:01:28.331Z,955.49
2016-07-23T01:02:31.779Z,955.44
2016-07-23T01:03:13.354Z,955.48
2016-07-23T01:04:27.207Z,955.47
2016-07-23T01:05:19.186Z,955.49
2016-07-23T01:06:20.217Z,955.51
2016-07-23T01:07:20.319Z,955.48
2016-07-23T01:08:21.363Z,955.48
2016-07-23T01:09:12.690Z,955.46
2016-07-23T01:10:15.896Z,955.48
2016-07-23T01:11:16.465Z,955.50
2016-07-23T01:12:12.360Z,955.54
2016-07-23T01:13:31.023Z,955.47
2016-07-23T01:14:31.892Z,955.48
2016-07-23T01:15:12.996Z,955.46
2016-07-23T01:16:14.322Z,955.42
2016-07-23T01:17:14.859Z,955.42
2016-07-23T01:18:13.001Z,955.45
2016-07-23T01:19:11.404Z,955.40
2016-07-23T01:20:27.267Z,955.37
2016-07-23T01:21:17.985Z,955.39
2016-07-23T01:22:29.781Z,955.36
2016-07-23T01:23:24.949Z,955.36
2016-07-23T01:24:33.828Z,955.32
2016-07-23T01:25:20.358Z,955.32
2016-07-23T01:26:26.713Z,955.32
2016-07-23T01:27:15.279Z,955.33
2016-07-23T01:28:13.302Z,955.32
2016-07-23T01:29:25.538Z,955.31
2016-07-23T01:30:15.485Z,955.27
2016-07-23T01:31:17.430Z,955.25
2016-07-23T01:32:14.233Z,955.28
2016-07-23T01:33:13.024Z,955.30
2016-07-23T01:34:24.724Z,955.29
2016-07-23T01:35:27.495Z,955.29
2016-07-23T01:36:27.915Z,955.31
2016-07-23T01:37:29.753Z,955.30
2016-07-23T01:38:22.812Z,955.35
2016-07-23T01:39:23.123Z,955.33
2016-07-23T01:40:15.113Z,955.34
2016-07-23T01:41:25.411Z,955.32
2016-07-23T01:42:19.049Z,955.35
2016-07-23T01:43:23.358Z,955.33
2016-07-23T01:44:31.570Z,955.35
2016-07-23T01:45:22.805Z,955.34
2016-07-23T01:46:22.704Z,955.35
2016-07-23T01:47:16.608Z,955.35
2016-07-23T01:48:17.950Z,955.38
2016-07-23T01:49:19.818Z,955.36
2016-07-23T01:50:12.960Z,955.37
2016-07-23T01:51:20.155Z,955.32
2016-07-23T01:52:15.081Z,955.35
2016-07-23T01:53:27.368Z,955.34
2016-07-23T01:54:20.200Z,955.32
2016-07-23T01:55:31.689Z,955.37
2016-07-23T01:56:19.927Z,955.34
2016-07-23T01:57:14.811Z,955.32
2016-07-23T01:58:26.039Z,955.33
2016-07-23T01:59:20.998Z,955.34
2016-07-23T02:00:23.381Z,955.33
2016-07-23T02:01:14.274Z,955.31
2016-07-23T02:02:13.175Z,955.30
2016-07-23T02:03:15.176Z,955.26
2016-07-23T02:04:22.749Z,955.25
2016-07-23T02:05:27.326Z,955.18
2016-07-23T02:06:15.561Z,955.22
2016-07-23T02:07:34.844Z,955.23
2016-07-23T02:08:18.158Z,955.24
2016-07-23T02:09:19.166Z,955.20
2016-07-23T02:10:12.510Z,955.24
2016-07-23T02:11:27.482Z,955.23
2016-07-23T02:12:11.911Z,955.25
2016-07-23T02:13:15.660Z,955.23
2016-07-23T02:14:28.343Z,955.25
2016-07-23T02:15:14.291Z,955.19
2016-07-23T02:16:28.925Z,955.22
2016-07-23T02:17:14.393Z,955.25
2016-07-23T02:18:13.169Z,955.14
2016-07-23T02:19:22.063Z,955.24
2016-07-23T02:20:21.275Z,955.24
2016-07-23T02:21:27.076Z,955.29
2016-07-23T02:22:24.875Z,955.28
2016-07-23T02:23:22.425Z,955.24
2016-07-23T02:24:21.715Z,955.21
2016-07-23T02:25:24.691Z,955.24
2016-07-23T02:26:17.120Z,955.27
2016-07-23T02:27:14.368Z,955.27
2016-07-23T02:28:18.430Z,955.24
2016-07-23T02:29:31.954Z,955.24
2016-07-23T02:30:15.558Z,955.23
2016-07-23T02:31:19.205Z,955.26
2016-07-23T02:32:15.002Z,955.31
2016-07-23T02:33:26.202Z,955.26
2016-07-23T02:34:30.216Z,955.27
2016-07-23T02:35:25.584Z,955.28
2016-07-23T02:36:24.259Z,955.26
2016-07-23T02:37:16.382Z,955.32
2016-07-23T02:38:27.712Z,955.30
2016-07-23T02:39:13.817Z,955.29
2016-07-23T02:40:27.070Z,955.36
2016-07-23T02:41:12.934Z,955.33
2016-07-23T02:42:27.982Z,955.29
2016-07-23T02:43:18.876Z,955.32
2016-07-23T02:44:24.821Z,955.30
2016-07-23T02:45:24.897Z,955.30
2016-07-23T02:46:14.658Z,955.32
2016-07-23T02:47:14.512Z,955.32
2016-07-23T02:48:19.913Z,955.29
2016-07-23T02:49:27.564Z,955.32
2016-07-23T02:50:27.358Z,955.34
2016-07-23T02:51:21.555Z,955.29
2016-07-23T02:52:16.507Z,955.36
2016-07-23T02:53:30.731Z,955.34
2016-07-23T02:54:12.705Z,955.37
2016-07-23T02:55:23.962Z,955.38
2016-07-23T02:56:26.403Z,955.39
2016-07-23T02:57:29.108Z,955.42
2016-07-23T02:58:24.216Z,955.47
2016-07-23T02:59:14.245Z,955.53
2016-07-23T03:00:27.670Z,955.59
2016-07-23T03:01:28.787Z,955.61
2016-07-23T03:02:31.803Z,955.54
2016-07-23T03:03:19.034Z,955.50
2016-07-23T03:04:12.598Z,955.50
2016-07-23T03:05:26.724Z,955.47
2016-07-23T03:06:16.082Z,955.53
2016-07-23T03:07:13.504Z,955.53
2016-07-23T03:08:20.060Z,955.52
2016-07-23T03:09:18.574Z,955.44
2016-07-23T03:10:26.372Z,955.41
2016-07-23T03:11:27.690Z,955.37
2016-07-23T03:12:13.135Z,955.36
2016-07-23T03:13:28.179Z,955.35
2016-07-23T03:14:23.772Z,955.33
2016-07-23T03:15:23.203Z,955.33
2016-07-23T03:16:23.837Z,955.29
2016-07-23T03:17:19.234Z,955.29
2016-07-23T03:18:30.618Z,955.32
2016-07-23T03:19:15.695Z,955.31
2016-07-23T03:20:11.820Z,955.35
2016-07-23T03:21:39.333Z,955.38
2016-07-23T03:22:26.851Z,955.41
2016-07-23T03:23:20.409Z,955.40
2016-07-23T03:24:21.750Z,955.41
2016-07-23T03:25:29.961Z,955.40
2016-07-23T03:26:26.027Z,955.36
2016-07-23T03:27:17.815Z,955.41
2016-07-23T03:28:21.545Z,955.39
2016-07-23T03:29:22.785Z,955.46
2016-07-23T03:30:16.665Z,955.41
2016-07-23T03:31:23.042Z,955.40
2016-07-23T03:32:22.958Z,955.40
2016-07-23T03:33:30.971Z,955.31
2016-07-23T03:34:28.404Z,955.30
2016-07-23T03:35:20.221Z,955.31
2016-07-23T03:36:19.275Z,955.35
2016-07-23T03:37:19.911Z,955.38
2016-07-23T03:38:24.100Z,955.39
2016-07-23T03:39:31.912Z,955.43
2016-07-23T03:40:15.950Z,955.39
2016-07-23T03:41:16.898Z,955.39
2016-07-23T03:42:23.054Z,955.36
2016-07-23T03:43:28.858Z,955.36
2016-07-23T03:44:22.640Z,955.35
2016-07-23T03:45:22.679Z,955.32
2016-07-23T03:46:18.015Z,955.30
2016-07-23T03:47:17.025Z,955.30
2016-07-23T03:48:25.401Z,955.34
2016-07-23T03:49:21.743Z,955.32
2016-07-23T03:50:13.289Z,955.35
2016-07-23T03:51:13.730Z,955.33
2016-07-23T03:52:22.668Z,955.32
2016-07-23T03:53:13.072Z,955.36
2016-07-23T03:54:25.959Z,955.37
2016-07-23T03:55:29.170Z,955.40
2016-07-23T03:56:32.427Z,955.42
2016-07-23T03:57:31.737Z,955.39
2016-07-23T03:58:26.400Z,955.39
2016-07-23T03:59:12.621Z,955.34
2016-07-23T04:00:31.240Z,955.32
2016-07-23T04:01:33.151Z,955.32
2016-07-23T04:02:21.670Z,955.29
2016-07-23T04:03:33.121Z,955.17
2016-07-23T04:04:17.181Z,955.23
2016-07-23T04:05:25.017Z,955.26
2016-07-23T04:06:19.212Z,955.22
2016-07-23T04:07:24.115Z,955.27
2016-07-23T04:08:29.134Z,955.29
2016-07-23T04:09:15.065Z,955.29
2016-07-23T04:10:13.259Z,955.29
2016-07-23T04:11:23.056Z,955.31
2016-07-23T04:12:13.727Z,955.34
2016-07-23T04:13:11.933Z,955.36
2016-07-23T04:14:16.304Z,955.39
2016-07-23T04:15:23.154Z,955.43
2016-07-23T04:16:27.965Z,955.43
2016-07-23T04:17:20.393Z,955.42
2016-07-23T04:18:19.376Z,955.41
2016-07-23T04:19:28.010Z,955.35
2016-07-23T04:20:22.977Z,955.43
2016-07-23T04:21:20.358Z,955.46
2016-07-23T04:22:19.304Z,955.46
2016-07-23T04:23:29.504Z,955.45
2016-07-23T04:24:30.993Z,955.45
2016-07-23T04:25:18.243Z,955.44
2016-07-23T04:26:13.013Z,955.49
2016-07-23T04:27:16.474Z,955.46
2016-07-23T04:28:14.858Z,955.50
2016-07-23T04:29:27.958Z,955.56
2016-07-23T04:30:25.082Z,955.54
2016-07-23T04:31:25.949Z,955.55
2016-07-23T04:32:15.995Z,955.57
2016-07-23T04:33:28.186Z,955.53
2016-07-23T04:34:12.768Z,955.52
2016-07-23T04:35:21.986Z,955.50
2016-07-23T04:36:19.607Z,955.45
2016-07-23T04:37:29.347Z,955.41
2016-07-23T04:38:22.832Z,955.39
2016-07-23T04:39:13.615Z,955.37
2016-07-23T04:40:22.100Z,955.35
2016-07-23T04:41:21.798Z,955.33
2016-07-23T04:42:14.844Z,955.30
2016-07-23T04:43:24.631Z,955.34
2016-07-23T04:44:13.253Z,955.34
2016-07-23T04:45:13.957Z,955.36
2016-07-23T04:46:13.401Z,955.39
2016-07-23T04:47:30.366Z,955.43
2016-07-23T04:48:31.222Z,955.44
2016-07-23T04:49:18.072Z,955.42
2016-07-23T04:50:23.809Z,955.46
2016-07-23T04:51:26.135Z,955.47
2016-07-23T04:52:26.801Z,955.55
2016-07-23T04:53:21.215Z,955.56
2016-07-23T04:54:28.239Z,955.62
2016-07-23T04:55:15.247Z,955.62
2016-07-23T04:56:17.812Z,955.58
2016-07-23T04:57:16.717Z,955.58
2016-07-23T04:58:21.822Z,955.54
2016-07-23T04:59:21.849Z,955.57
2016-07-23T05:00:11.599Z,955.49
2016-07-23T05:01:13.807Z,955.57
2016-07-23T05:02:21.084Z,955.55
2016-07-23T05:03:25.956Z,955.62
2016-07-23T05:04:13.131Z,955.62
2016-07-23T05:05:15.838Z,955.52
2016-07-23T05:06:12.686Z,955.59
2016-07-23T05:07:16.495Z,955.60
2016-07-23T05:08:15.037Z,955.64
2016-07-23T05:09:18.722Z,955.64
2016-07-23T05:10:12.825Z,955.64
2016-07-23T05:11:20.967Z,955.61
2016-07-23T05:12:14.859Z,955.65
2016-07-23T05:13:12.851Z,955.69
2016-07-23T05:14:20.197Z,955.68
2016-07-23T05:15:15.187Z,955.63
2016-07-23T05:16:23.594Z,955.62
2016-07-23T05:17:13.193Z,955.62
2016-07-23T05:18:12.676Z,955.64
2016-07-23T05:19:34.019Z,955.65
2016-07-23T05:20:21.935Z,955.66
2016-07-23T05:21:13.738Z,955.69
2016-07-23T05:22:13.912Z,955.68
2016-07-23T05:23:22.061Z,955.63
2016-07-23T05:24:33.017Z,955.64
2016-07-23T05:25:18.745Z,955.59
2016-07-23T05:26:21.244Z,955.63
2016-07-23T05:27:26.438Z,955.65
2016-07-23T05:28:18.071Z,955.69
2016-07-23T05:29:18.365Z,955.62
2016-07-23T05:30:19.294Z,955.58
2016-07-23T05:31:21.549Z,955.64
2016-07-23T05:32:24.367Z,955.62
2016-07-23T05:33:13.403Z,955.61
2016-07-23T05:34:22.702Z,955.60
2016-07-23T05:35:27.424Z,955.62
2016-07-23T05:36:13.463Z,955.60
2016-07-23T05:37:17.808Z,955.60
2016-07-23T05:38:15.481Z,955.60
2016-07-23T05:39:25.472Z,955.60
2016-07-23T05:40:16.414Z,955.65
2016-07-23T05:41:21.893Z,955.72
2016-07-23T05:42:25.218Z,955.71
2016-07-23T05:43:12.978Z,955.72
2016-07-23T05:44:12.332Z,955.70
2016-07-23T05:45:14.309Z,955.73
2016-07-23T05:46:26.627Z,955.71
2016-07-23T05:47:19.168Z,955.74
2016-07-23T05:48:27.924Z,955.78
2016-07-23T05:49:27.128Z,955.80
2016-07-23T05:50:16.405Z,955.83
2016-07-23T05:51:16.683Z,955.87
2016-07-23T05:52:22.064Z,955.86
2016-07-23T05:53:12.201Z,955.86
2016-07-23T05:54:15.049Z,955.92
2016-07-23T05:55:20.017Z,955.91
2016-07-23T05:56:13.541Z,955.87
2016-07-23T05:57:13.830Z,955.89
2016-07-23T05:58:13.397Z,955.77
2016-07-23T05:59:13.976Z,955.75
2016-07-23T06:00:21.871Z,955.75
2016-07-23T06:01:26.275Z,955.76
2016-07-23T06:02:14.819Z,955.79
2016-07-23T06:03:12.630Z,955.74
2016-07-23T06:04:24.243Z,955.72
2016-07-23T06:05:13.719Z,955.73
2016-07-23T06:06:25.142Z,955.78
2016-07-23T06:07:26.045Z,955.78
2016-07-23T06:08:15.065Z,955.81
2016-07-23T06:09:16.405Z,955.88
2016-07-23T06:10:33.744Z,955.83
2016-07-23T06:11:16.366Z,955.83
2016-07-23T06:12:17.114Z,955.85
2016-07-23T06:13:28.723Z,955.83
2016-07-23T06:14:19.213Z,955.88
2016-07-23T06:15:22.583Z,955.86
2016-07-23T06:16:26.008Z,955.88
2016-07-23T06:17:18.037Z,955.87
2016-07-23T06:18:12.055Z,955.88
2016-07-23T06:19:11.273Z,955.93
2016-07-23T06:20:22.685Z,955.94
2016-07-23T06:21:21.815Z,955.96
2016-07-23T06:22:28.709Z,955.97
2016-07-23T06:23:26.775Z,955.93
2016-07-23T06:24:25.961Z,955.96
2016-07-23T06:25:13.251Z,955.97
2016-07-23T06:26:20.933Z,955.99
2016-07-23T06:27:21.869Z,956.04
2016-07-23T06:28:14.347Z,956.05
2016-07-23T06:29:13.826Z,956.06
2016-07-23T06:30:18.366Z,956.05
2016-07-23T06:31:13.850Z,956.11
2016-07-23T06:32:27.768Z,956.03
2016-07-23T06:33:27.796Z,956.10
2016-07-23T06:34:12.559Z,956.08
2016-07-23T06:35:17.065Z,956.12
2016-07-23T06:36:25.803Z,956.07
2016-07-23T06:37:18.212Z,956.07
2016-07-23T06:38:19.743Z,956.01
2016-07-23T06:39:16.380Z,955.96
2016-07-23T06:40:14.526Z,955.97
2016-07-23T06:41:12.460Z,955.98
2016-07-23T06:42:28.099Z,955.98
2016-07-23T06:43:20.810Z,956.02
2016-07-23T06:44:25.454Z,956.06
2016-07-23T06:45:14.007Z,956.09
2016-07-23T06:46:18.419Z,956.11
2016-07-23T06:47:25.082Z,956.15
2016-07-23T06:48:22.247Z,956.18
2016-07-23T06:49:15.575Z,956.23
2016-07-23T06:50:20.772Z,956.22
2016-07-23T06:51:16.919Z,956.22
2016-07-23T06:52:11.444Z,956.19
2016-07-23T06:53:27.276Z,956.17
2016-07-23T06:54:26.333Z,956.15
2016-07-23T06:55:24.586Z,956.11
2016-07-23T06:56:24.683Z,956.09
2016-07-23T06:57:13.698Z,956.10
2016-07-23T06:58:25.367Z,956.11
2016-07-23T06:59:25.290Z,956.14
2016-07-23T07:00:16.124Z,956.11
2016-07-23T07:01:16.402Z,956.11
2016-07-23T07:02:22.406Z,956.11
2016-07-23T07:03:18.340Z,956.12
2016-07-23T07:04:12.716Z,956.14
2016-07-23T07:05:12.882Z,956.17
2016-07-23T07:06:30.443Z,956.19
2016-07-23T07:07:25.333Z,956.25
2016-07-23T07:08:27.764Z,956.26
2016-07-23T07:09:25.858Z,956.24
2016-07-23T07:10:21.656Z,956.20
2016-07-23T07:11:15.480Z,956.19
2016-07-23T07:12:16.525Z,956.24
2016-07-23T07:13:24.505Z,956.21
2016-07-23T07:14:24.052Z,956.21
2016-07-23T07:15:33.943Z,956.22
2016-07-23T07:16:21.752Z,956.25
2016-07-23T07:17:22.641Z,956.25
2016-07-23T07:18:14.635Z,956.27
2016-07-23T07:19:13.902Z,956.24
2016-07-23T07:20:24.712Z,956.26
2016-07-23T07:21:26.254Z,956.23
2016-07-23T07:22:13.976Z,956.22
2016-07-23T07:23:22.718Z,956.22
2016-07-23T07:24:13.928Z,956.14
2016-07-23T07:25:17.477Z,956.18
2016-07-23T07:26:19.031Z,956.14
2016-07-23T07:27:20.563Z,956.14
2016-07-23T07:28:16.397Z,956.12
2016-07-23T07:29:21.060Z,956.10
2016-07-23T07:30:23.251Z,956.11
2016-07-23T07:31:15.459Z,956.05
2016-07-23T07:32:28.384Z,956.10
2016-07-23T07:33:17.951Z,956.05
2016-07-23T07:34:13.820Z,956.07
2016-07-23T07:35:19.456Z,956.06
2016-07-23T07:36:14.902Z,956.02
2016-07-23T07:37:18.886Z,956.04
2016-07-23T07:38:18.349Z,956.05
2016-07-23T07:39:14.556Z,956.08
2016-07-23T07:40:18.075Z,956.04
2016-07-23T07:41:13.910Z,956.03
2016-07-23T07:42:27.893Z,956.04
2016-07-23T07:43:12.468Z,955.99
2016-07-23T07:44:13.595Z,955.99
2016-07-23T07:45:28.911Z,955.96
2016-07-23T07:46:17.538Z,955.98
2016-07-23T07:47:19.517Z,956.04
2016-07-23T07:48:14.168Z,956.09
2016-07-23T07:49:14.532Z,956.08
2016-07-23T07:50:18.173Z,956.07
2016-07-23T07:51:14.791Z,956.07
2016-07-23T07:52:30.785Z,956.06
2016-07-23T07:53:21.026Z,956.06
2016-07-23T07:54:18.980Z,956.07
2016-07-23T07:55:14.219Z,956.05
2016-07-23T07:56:22.893Z,956.03
2016-07-23T07:57:13.448Z,955.97
2016-07-23T07:58:14.168Z,955.98
2016-07-23T07:59:16.978Z,955.92
2016-07-23T08:00:18.760Z,955.94
2016-07-23T08:01:26.969Z,955.96
2016-07-23T08:02:12.219Z,955.98
2016-07-23T08:03:13.920Z,955.98
2016-07-23T08:04:22.613Z,955.97
2016-07-23T08:05:14.166Z,955.99
2016-07-23T08:06:12.266Z,955.95
2016-07-23T08:07:23.175Z,955.98
2016-07-23T08:08:13.773Z,956.00
2016-07-23T08:09:13.425Z,956.00
2016-07-23T08:10:14.884Z,955.98
2016-07-23T08:11:30.497Z,956.02
2016-07-23T08:12:12.142Z,956.00
2016-07-23T08:13:11.477Z,956.05
2016-07-23T08:14:19.700Z,956.03
2016-07-23T08:15:11.549Z,956.02
2016-07-23T08:16:18.166Z,956.05
2016-07-23T08:17:20.698Z,956.06
2016-07-23T08:18:15.102Z,956.07
2016-07-23T08:19:14.640Z,956.12
2016-07-23T08:20:18.218Z,956.11
2016-07-23T08:21:17.678Z,956.14
2016-07-23T08:22:17.178Z,956.19
2016-07-23T08:23:12.830Z,956.21
2016-07-23T08:24:18.937Z,956.17
2016-07-23T08:25:19.248Z,956.19
2016-07-23T08:26:27.904Z,956.22
2016-07-23T08:27:13.593Z,956.23
2016-07-23T08:28:27.201Z,956.28
2016-07-23T08:29:12.765Z,956.31
2016-07-23T08:30:12.926Z,956.35
2016-07-23T08:31:23.761Z,956.37
2016-07-23T08:32:12.475Z,956.40
2016-07-23T08:33:17.714Z,956.45
2016-07-23T08:34:12.111Z,956.48
2016-07-23T08:35:26.005Z,956.52
2016-07-23T08:36:14.553Z,956.55
2016-07-23T08:37:13.426Z,956.55
2016-07-23T08:38:12.980Z,956.51
2016-07-23T08:39:19.453Z,956.54
2016-07-23T08:40:15.472Z,956.55
2016-07-23T08:41:14.760Z,956.52
2016-07-23T08:42:24.703Z,956.52
2016-07-23T08:43:26.492Z,956.48
2016-07-23T08:44:12.314Z,956.44
2016-07-23T08:45:24.720Z,956.41
2016-07-23T08:46:21.245Z,956.39
2016-07-23T08:47:10.639Z,956.32
2016-07-23T08:48:14.707Z,956.34
2016-07-23T08:49:16.087Z,956.26
2016-07-23T08:50:11.576Z,956.24
2016-07-23T08:51:12.300Z,956.22
2016-07-23T08:52:18.221Z,956.24
2016-07-23T08:53:11.049Z,956.21
2016-07-23T08:54:25.420Z,956.23
2016-07-23T08:55:14.966Z,956.26
2016-07-23T08:56:12.753Z,956.26
2016-07-23T08:57:13.521Z,956.25
2016-07-23T08:58:14.458Z,956.28
2016-07-23T08:59:20.380Z,956.27
2016-07-23T09:00:16.222Z,956.27
2016-07-23T09:01:22.382Z,956.27
2016-07-23T09:02:13.452Z,956.24
2016-07-23T09:03:14.118Z,956.22
2016-07-23T09:04:13.950Z,956.20
2016-07-23T09:05:20.336Z,956.22
2016-07-23T09:06:20.702Z,956.22
2016-07-23T09:07:12.342Z,956.16
2016-07-23T09:08:14.715Z,956.19
2016-07-23T09:09:19.190Z,956.17
2016-07-23T09:10:23.504Z,956.14
2016-07-23T09:11:13.066Z,956.17
2016-07-23T09:12:28.188Z,956.17
2016-07-23T09:13:12.417Z,956.13
2016-07-23T09:14:11.620Z,956.14
2016-07-23T09:15:13.524Z,956.10
2016-07-23T09:16:13.931Z,956.14
2016-07-23T09:17:16.576Z,956.11
2016-07-23T09:18:11.913Z,956.15
2016-07-23T09:19:16.177Z,956.13
2016-07-23T09:20:18.060Z,956.07
2016-07-23T09:21:27.402Z,956.09
2016-07-23T09:22:15.982Z,956.07
2016-07-23T09:23:14.862Z,956.10
2016-07-23T09:24:10.665Z,956.07
2016-07-23T09:25:16.212Z,956.01
2016-07-23T09:26:22.526Z,955.96
2016-07-23T09:27:18.468Z,955.95
2016-07-23T09:28:14.771Z,955.91
2016-07-23T09:29:24.547Z,955.90
2016-07-23T09:30:22.551Z,955.93
2016-07-23T09:31:27.673Z,955.94
2016-07-23T09:32:17.420Z,955.93
2016-07-23T09:33:16.492Z,955.89
2016-07-23T09:34:14.656Z,955.92
2016-07-23T09:35:17.857Z,955.98
2016-07-23T09:36:12.987Z,955.98
2016-07-23T09:37:14.447Z,955.97
2016-07-23T09:38:13.701Z,955.98
2016-07-23T09:39:15.816Z,955.96
2016-07-23T09:40:14.319Z,955.98
2016-07-23T09:41:13.377Z,955.99
2016-07-23T09:42:14.048Z,955.99
2016-07-23T09:43:15.806Z,955.99
2016-07-23T09:44:13.198Z,956.00
2016-07-23T09:45:12.625Z,955.98
2016-07-23T09:46:14.835Z,955.98
2016-07-23T09:47:13.792Z,956.06
2016-07-23T09:48:14.020Z,956.04
2016-07-23T09:49:14.338Z,956.09
2016-07-23T09:50:11.513Z,956.07
2016-07-23T09:51:14.319Z,956.05
2016-07-23T09:52:14.271Z,956.10
2016-07-23T09:53:12.616Z,956.08
2016-07-23T09:54:13.609Z,956.11
2016-07-23T09:55:10.597Z,956.12
2016-07-23T09:56:11.112Z,956.07
2016-07-23T09:57:12.606Z,956.10
2016-07-23T09:58:14.431Z,956.07
2016-07-23T09:59:18.969Z,956.05
2016-07-23T10:00:15.860Z,956.05
2016-07-23T10:01:12.606Z,956.04
2016-07-23T10:02:13.534Z,956.03
2016-07-23T10:03:12.353Z,956.04
2016-07-23T10:04:14.688Z,956.05
2016-07-23T10:05:14.655Z,956.01
2016-07-23T10:06:14.423Z,956.10
2016-07-23T10:07:12.188Z,956.13
2016-07-23T10:08:12.896Z,956.07
2016-07-23T10:09:13.364Z,956.08
2016-07-23T10:10:15.096Z,956.08
2016-07-23T10:11:12.753Z,956.09
2016-07-23T10:12:15.574Z,956.13
2016-07-23T10:13:13.151Z,956.10
2016-07-23T10:14:14.970Z,956.10
2016-07-23T10:15:13.179Z,956.14
2016-07-23T10:16:13.125Z,956.14
2016-07-23T10:17:13.906Z,956.14
2016-07-23T10:18:15.630Z,956.12
2016-07-23T10:19:12.732Z,956.13
2016-07-23T10:20:14.565Z,956.13
2016-07-23T10:21:13.011Z,956.10
2016-07-23T10:22:12.996Z,956.07
2016-07-23T10:23:11.992Z,956.05
2016-07-23T10:24:15.825Z,956.10
2016-07-23T10:25:17.525Z,956.12
2016-07-23T10:26:14.508Z,956.14
2016-07-23T10:27:13.554Z,956.13
2016-07-23T10:28:12.679Z,956.13
2016-07-23T10:29:13.367Z,956.15
2016-07-23T10:30:17.260Z,956.15
2016-07-23T10:31:13.533Z,956.14
2016-07-23T10:32:16.615Z,956.12
2016-07-23T10:33:14.416Z,956.11
2016-07-23T10:34:13.431Z,956.08
2016-07-23T10:35:12.272Z,956.09
2016-07-23T10:36:12.846Z,956.07
2016-07-23T10:37:12.669Z,956.08
2016-07-23T10:38:14.084Z,956.06
2016-07-23T10:39:12.830Z,956.05
2016-07-23T10:40:15.559Z,956.05
2016-07-23T10:41:15.750Z,956.03
2016-07-23T10:42:14.045Z,956.01
2016-07-23T10:43:13.398Z,955.96
2016-07-23T10:44:12.637Z,955.95
2016-07-23T10:45:13.741Z,955.97
2016-07-23T10:46:13.023Z,955.98
2016-07-23T10:47:12.956Z,955.94
2016-07-23T10:48:16.114Z,955.96
2016-07-23T10:49:13.015Z,955.97
2016-07-23T10:50:12.806Z,955.96
2016-07-23T10:51:13.613Z,955.98
2016-07-23T10:52:13.500Z,955.96
2016-07-23T10:53:12.741Z,955.97
2016-07-23T10:54:12.382Z,955.96
2016-07-23T10:55:12.606Z,955.95
2016-07-23T10:56:13.635Z,955.94
2016-07-23T10:57:14.429Z,955.87
2016-07-23T10:58:14.848Z,955.87
2016-07-23T10:59:12.009Z,955.85
2016-07-23T11:00:13.054Z,955.86
2016-07-23T11:01:12.941Z,955.78
2016-07-23T11:02:13.227Z,955.82
2016-07-23T11:03:14.653Z,955.77
2016-07-23T11:04:15.524Z,955.81
2016-07-23T11:05:13.759Z,955.84
2016-07-23T11:06:12.583Z,955.80
2016-07-23T11:07:14.163Z,955.87
2016-07-23T11:08:13.632Z,955.88
2016-07-23T11:09:13.035Z,955.89
2016-07-23T11:10:12.989Z,955.90
2016-07-23T11:11:14.916Z,955.96
2016-07-23T11:12:12.900Z,955.95
2016-07-23T11:13:13.642Z,955.93
2016-07-23T11:14:10.513Z,955.93
2016-07-23T11:15:15.804Z,955.92
2016-07-23T11:16:12.657Z,955.87
2016-07-23T11:17:13.284Z,955.89
2016-07-23T11:18:13.074Z,955.92
2016-07-23T11:19:12.153Z,955.85
2016-07-23T11:20:11.426Z,955.85
2016-07-23T11:21:12.624Z,955.93
2016-07-23T11:22:12.810Z,955.94
2016-07-23T11:23:12.561Z,955.93
2016-07-23T11:24:13.223Z,955.96
2016-07-23T11:25:13.794Z,955.98
2016-07-23T11:26:13.769Z,956.02
2016-07-23T11:27:13.529Z,956.00
2016-07-23T11:28:12.002Z,955.98
2016-07-23T11:29:13.388Z,956.00
2016-07-23T11:30:11.893Z,955.97
2016-07-23T11:31:12.952Z,955.97
2016-07-23T11:32:12.358Z,955.98
2016-07-23T11:33:13.658Z,955.99
2016-07-23T11:34:13.290Z,955.95
2016-07-23T11:35:14.186Z,955.97
2016-07-23T11:36:13.422Z,955.97
2016-07-23T11:37:13.105Z,955.97
2016-07-23T11:38:14.854Z,955.95
2016-07-23T11:39:13.177Z,955.94
2016-07-23T11:40:13.536Z,955.96
2016-07-23T11:41:14.793Z,955.92
2016-07-23T11:42:10.770Z,955.91
2016-07-23T11:43:12.652Z,955.94
2016-07-23T11:44:12.767Z,955.96
2016-07-23T11:45:13.441Z,955.91
2016-07-23T11:46:13.498Z,955.91
2016-07-23T11:47:13.263Z,955.97
2016-07-23T11:48:13.227Z,955.96
2016-07-23T11:49:12.911Z,955.94
2016-07-23T11:50:13.572Z,955.99
2016-07-23T11:51:13.803Z,955.89
2016-07-23T11:52:13.265Z,955.93
2016-07-23T11:53:12.930Z,955.87
2016-07-23T11:54:12.274Z,955.92
2016-07-23T11:55:13.470Z,955.95
2016-07-23T11:56:15.534Z,955.93
2016-07-23T11:57:12.898Z,955.90
2016-07-23T11:58:12.765Z,955.92
2016-07-23T11:59:11.021Z,955.94
2016-07-23T12:00:13.571Z,955.93
2016-07-23T12:01:12.854Z,955.91
2016-07-23T12:02:11.355Z,955.92
2016-07-23T12:03:16.767Z,955.92
2016-07-23T12:04:12.891Z,955.94
2016-07-23T12:05:12.706Z,955.95
2016-07-23T12:06:12.771Z,955.90
2016-07-23T12:07:12.414Z,955.91
2016-07-23T12:08:12.832Z,955.88
2016-07-23T12:09:13.218Z,955.92
2016-07-23T12:10:12.839Z,955.94
2016-07-23T12:11:13.848Z,955.93
2016-07-23T12:12:12.321Z,955.92
2016-07-23T12:13:12.664Z,955.93
2016-07-23T12:14:12.637Z,955.93
2016-07-23T12:15:13.307Z,955.92
2016-07-23T12:16:13.334Z,955.93
2016-07-23T12:17:16.327Z,955.89
2016-07-23T12:18:13.250Z,955.84
2016-07-23T12:19:12.624Z,955.84
2016-07-23T12:20:11.945Z,955.86
2016-07-23T12:21:14.131Z,955.83
2016-07-23T12:22:13.088Z,955.81
2016-07-23T12:23:13.527Z,955.80
2016-07-23T12:24:14.264Z,955.85
2016-07-23T12:25:11.515Z,955.87
2016-07-23T12:26:13.602Z,955.86
2016-07-23T12:27:13.864Z,955.87
2016-07-23T12:28:12.732Z,955.89